sensor_id;sensor_type;location;lat;lon;timestamp;pressure;altitude;pressure_sealevel;temperature;humidity
49729;BME280;66333;49.798;10.968;2023-08-01T00:01:10;97135.22;;;20.92;52.45
49729;BME280;66333;49.798;10.968;2023-08-01T00:03:45;97137.63;;;20.93;52.31
49729;BME280;66333;49.798;10.968;2023-08-01T00:06:15;97124.09;;;20.95;52.36
49729;BME280;66333;49.798;10.968;2023-08-01T00:08:59;97125.72;;;20.96;52.42
49729;BME280;66333;49.798;10.968;2023-08-01T00:11:26;97124.81;;;20.90;52.60
49729;BME280;66333;49.798;10.968;2023-08-01T00:13:53;97118.28;;;20.98;52.30
49729;BME280;66333;49.798;10.968;2023-08-01T00:16:23;97117.63;;;20.91;52.52
49729;BME280;66333;49.798;10.968;2023-08-01T00:18:51;97116.91;;;20.95;52.39
49729;BME280;66333;49.798;10.968;2023-08-01T00:21:20;97108.91;;;20.95;52.33
49729;BME280;66333;49.798;10.968;2023-08-01T00:24:01;97108.59;;;20.92;52.46
49729;BME280;66333;49.798;10.968;2023-08-01T00:26:32;97107.06;;;20.96;52.43
49729;BME280;66333;49.798;10.968;2023-08-01T00:29:02;97107.69;;;21.03;52.15
49729;BME280;66333;49.798;10.968;2023-08-01T00:31:31;97109.59;;;20.86;52.69
49729;BME280;66333;49.798;10.968;2023-08-01T00:34:01;97098.94;;;20.86;52.37
49729;BME280;66333;49.798;10.968;2023-08-01T00:36:31;97100.56;;;20.87;52.54
49729;BME280;66333;49.798;10.968;2023-08-01T00:39:12;97092.06;;;20.90;52.48
49729;BME280;66333;49.798;10.968;2023-08-01T00:41:42;97092.63;;;20.92;52.47
49729;BME280;66333;49.798;10.968;2023-08-01T00:44:12;97094.22;;;20.93;52.47
49729;BME280;66333;49.798;10.968;2023-08-01T00:46:43;97090.03;;;20.97;52.44
49729;BME280;66333;49.798;10.968;2023-08-01T00:49:14;97077.78;;;20.96;52.37
49729;BME280;66333;49.798;10.968;2023-08-01T00:51:50;97074.09;;;21.02;52.04
49729;BME280;66333;49.798;10.968;2023-08-01T00:54:33;97065.63;;;21.05;52.12
49729;BME280;66333;49.798;10.968;2023-08-01T00:57:05;97067.13;;;20.96;52.29
49729;BME280;66333;49.798;10.968;2023-08-01T00:59:39;97060.47;;;20.98;52.09
49729;BME280;66333;49.798;10.968;2023-08-01T01:02:07;97052.75;;;20.97;52.24
49729;BME280;66333;49.798;10.968;2023-08-01T01:04:46;97048.16;;;20.92;52.30
49729;BME280;66333;49.798;10.968;2023-08-01T01:07:16;97051.38;;;20.94;52.14
49729;BME280;66333;49.798;10.968;2023-08-01T01:09:50;97049.81;;;20.98;52.16
49729;BME280;66333;49.798;10.968;2023-08-01T01:12:17;97030.09;;;20.94;52.40
49729;BME280;66333;49.798;10.968;2023-08-01T01:14:47;97020.78;;;20.97;52.24
49729;BME280;66333;49.798;10.968;2023-08-01T01:17:17;97015.97;;;20.94;52.46
49729;BME280;66333;49.798;10.968;2023-08-01T01:19:47;97019.66;;;20.93;52.39
49729;BME280;66333;49.798;10.968;2023-08-01T01:22:35;97001.78;;;20.88;52.43
49729;BME280;66333;49.798;10.968;2023-08-01T01:25:07;97008.19;;;20.92;52.48
49729;BME280;66333;49.798;10.968;2023-08-01T01:27:37;96996.75;;;20.92;52.27
49729;BME280;66333;49.798;10.968;2023-08-01T01:30:07;96994.84;;;20.87;52.55
49729;BME280;66333;49.798;10.968;2023-08-01T01:32:49;96994.34;;;20.90;52.48
49729;BME280;66333;49.798;10.968;2023-08-01T01:35:19;96984.00;;;20.94;52.24
49729;BME280;66333;49.798;10.968;2023-08-01T01:37:58;96976.03;;;20.94;52.20
49729;BME280;66333;49.798;10.968;2023-08-01T01:40:31;96972.22;;;20.90;52.36
49729;BME280;66333;49.798;10.968;2023-08-01T01:43:01;96974.97;;;20.95;52.20
49729;BME280;66333;49.798;10.968;2023-08-01T01:45:31;96962.13;;;20.92;52.44
49729;BME280;66333;49.798;10.968;2023-08-01T01:48:02;96960.47;;;20.86;52.59
49729;BME280;66333;49.798;10.968;2023-08-01T01:50:30;96961.56;;;20.90;52.25
49729;BME280;66333;49.798;10.968;2023-08-01T01:53:12;96953.53;;;20.84;52.73
49729;BME280;66333;49.798;10.968;2023-08-01T01:55:42;96949.31;;;20.89;52.35
49729;BME280;66333;49.798;10.968;2023-08-01T01:58:12;96934.94;;;20.90;52.23
49729;BME280;66333;49.798;10.968;2023-08-01T02:00:40;96934.16;;;20.89;52.30
49729;BME280;66333;49.798;10.968;2023-08-01T02:03:21;96929.34;;;20.86;52.87
49729;BME280;66333;49.798;10.968;2023-08-01T02:05:49;96921.63;;;20.90;52.41
49729;BME280;66333;49.798;10.968;2023-08-01T02:08:24;96916.25;;;20.84;52.59
49729;BME280;66333;49.798;10.968;2023-08-01T02:10:52;96914.69;;;20.89;52.40
49729;BME280;66333;49.798;10.968;2023-08-01T02:13:26;96906.72;;;20.89;52.39
49729;BME280;66333;49.798;10.968;2023-08-01T02:15:54;96904.06;;;20.89;52.44
49729;BME280;66333;49.798;10.968;2023-08-01T02:18:23;96901.38;;;20.89;52.42
49729;BME280;66333;49.798;10.968;2023-08-01T02:20:53;96896.56;;;20.86;52.51
49729;BME280;66333;49.798;10.968;2023-08-01T02:23:29;96892.84;;;20.87;52.55
49729;BME280;66333;49.798;10.968;2023-08-01T02:26:04;96878.97;;;20.84;52.38
49729;BME280;66333;49.798;10.968;2023-08-01T02:28:35;96870.97;;;20.84;52.39
49729;BME280;66333;49.798;10.968;2023-08-01T02:31:03;96881.09;;;20.82;52.79
49729;BME280;66333;49.798;10.968;2023-08-01T02:33:33;96884.25;;;20.79;52.67
49729;BME280;66333;49.798;10.968;2023-08-01T02:36:04;96873.09;;;20.82;52.57
49729;BME280;66333;49.798;10.968;2023-08-01T02:38:46;96880.28;;;20.82;52.59
49729;BME280;66333;49.798;10.968;2023-08-01T02:41:16;96880.47;;;20.75;53.07
49729;BME280;66333;49.798;10.968;2023-08-01T02:43:46;96870.41;;;20.77;52.82
49729;BME280;66333;49.798;10.968;2023-08-01T02:46:16;96866.09;;;20.76;52.85
49729;BME280;66333;49.798;10.968;2023-08-01T02:48:45;96863.50;;;20.81;52.58
49729;BME280;66333;49.798;10.968;2023-08-01T02:51:15;96881.59;;;20.79;52.79
49729;BME280;66333;49.798;10.968;2023-08-01T02:53:59;96880.00;;;20.78;52.68
49729;BME280;66333;49.798;10.968;2023-08-01T02:56:34;96879.47;;;20.81;52.60
49729;BME280;66333;49.798;10.968;2023-08-01T02:59:07;96881.28;;;20.76;52.97
49729;BME280;66333;49.798;10.968;2023-08-01T03:01:34;96854.16;;;20.79;52.86
49729;BME280;66333;49.798;10.968;2023-08-01T03:04:06;96853.38;;;20.78;52.73
49729;BME280;66333;49.798;10.968;2023-08-01T03:06:39;96861.28;;;20.73;52.87
49729;BME280;66333;49.798;10.968;2023-08-01T03:09:19;96852.25;;;20.74;52.85
49729;BME280;66333;49.798;10.968;2023-08-01T03:11:48;96850.13;;;20.76;52.87
49729;BME280;66333;49.798;10.968;2023-08-01T03:14:17;96845.38;;;20.78;52.86
49729;BME280;66333;49.798;10.968;2023-08-01T03:16:46;96856.78;;;20.74;52.90
49729;BME280;66333;49.798;10.968;2023-08-01T03:19:17;96838.44;;;20.77;52.76
49729;BME280;66333;49.798;10.968;2023-08-01T03:21:47;96840.00;;;20.73;53.09
49729;BME280;66333;49.798;10.968;2023-08-01T03:24:31;96828.28;;;20.74;53.05
49729;BME280;66333;49.798;10.968;2023-08-01T03:27:01;96831.66;;;20.65;53.11
49729;BME280;66333;49.798;10.968;2023-08-01T03:29:31;96825.03;;;20.67;53.13
49729;BME280;66333;49.798;10.968;2023-08-01T03:31:59;96828.53;;;20.73;52.99
49729;BME280;66333;49.798;10.968;2023-08-01T03:34:28;96820.28;;;20.69;53.03
49729;BME280;66333;49.798;10.968;2023-08-01T03:36:57;96816.03;;;20.73;52.79
49729;BME280;66333;49.798;10.968;2023-08-01T03:39:46;96809.06;;;20.67;53.34
49729;BME280;66333;49.798;10.968;2023-08-01T03:42:16;96804.84;;;20.71;52.87
49729;BME280;66333;49.798;10.968;2023-08-01T03:44:45;96812.78;;;20.66;53.20
49729;BME280;66333;49.798;10.968;2023-08-01T03:47:15;96802.13;;;20.66;53.04
49729;BME280;66333;49.798;10.968;2023-08-01T03:49:45;96788.56;;;20.68;52.83
49729;BME280;66333;49.798;10.968;2023-08-01T03:52:15;96787.75;;;20.67;52.74
49729;BME280;66333;49.798;10.968;2023-08-01T03:54:57;96774.09;;;20.59;53.20
49729;BME280;66333;49.798;10.968;2023-08-01T03:57:27;96787.66;;;20.57;53.35
49729;BME280;66333;49.798;10.968;2023-08-01T04:00:00;96777.53;;;20.54;53.26
49729;BME280;66333;49.798;10.968;2023-08-01T04:02:30;96775.94;;;20.53;53.20
49729;BME280;66333;49.798;10.968;2023-08-01T04:05:00;96759.97;;;20.53;53.39
49729;BME280;66333;49.798;10.968;2023-08-01T04:07:31;96759.44;;;20.56;53.61
49729;BME280;66333;49.798;10.968;2023-08-01T04:10:12;96770.09;;;20.56;53.34
49729;BME280;66333;49.798;10.968;2023-08-01T04:12:42;96761.84;;;20.58;53.34
49729;BME280;66333;49.798;10.968;2023-08-01T04:15:12;96758.94;;;20.59;53.36
49729;BME280;66333;49.798;10.968;2023-08-01T04:17:41;96759.97;;;20.53;53.49
49729;BME280;66333;49.798;10.968;2023-08-01T04:20:12;96747.22;;;20.55;53.31
49729;BME280;66333;49.798;10.968;2023-08-01T04:22:39;96754.66;;;20.53;53.53
49729;BME280;66333;49.798;10.968;2023-08-01T04:25:10;96749.59;;;20.56;53.47
49729;BME280;66333;49.798;10.968;2023-08-01T04:27:38;96746.69;;;20.58;53.28
49729;BME280;66333;49.798;10.968;2023-08-01T04:30:08;96744.81;;;20.53;53.40
49729;BME280;66333;49.798;10.968;2023-08-01T04:32:38;96751.44;;;20.51;53.54
49729;BME280;66333;49.798;10.968;2023-08-01T04:35:08;96753.78;;;20.47;53.68
49729;BME280;66333;49.798;10.968;2023-08-01T04:37:39;96751.97;;;20.53;53.50
49729;BME280;66333;49.798;10.968;2023-08-01T04:40:15;96747.50;;;20.59;53.54
49729;BME280;66333;49.798;10.968;2023-08-01T04:42:50;96744.00;;;20.53;53.66
49729;BME280;66333;49.798;10.968;2023-08-01T04:45:20;96741.38;;;20.58;53.28
49729;BME280;66333;49.798;10.968;2023-08-01T04:47:50;96740.78;;;20.51;53.58
49729;BME280;66333;49.798;10.968;2023-08-01T04:50:31;96749.31;;;20.53;53.65
49729;BME280;66333;49.798;10.968;2023-08-01T04:52:58;96735.47;;;20.51;53.54
49729;BME280;66333;49.798;10.968;2023-08-01T04:55:31;96742.63;;;20.50;53.60
49729;BME280;66333;49.798;10.968;2023-08-01T04:58:00;96747.72;;;20.52;53.74
49729;BME280;66333;49.798;10.968;2023-08-01T05:00:30;96749.81;;;20.50;53.69
49729;BME280;66333;49.798;10.968;2023-08-01T05:02:57;96755.66;;;20.47;53.61
49729;BME280;66333;49.798;10.968;2023-08-01T05:05:28;96755.09;;;20.45;53.76
49729;BME280;66333;49.798;10.968;2023-08-01T05:07:58;96760.97;;;20.47;53.58
49729;BME280;66333;49.798;10.968;2023-08-01T05:10:41;96759.91;;;20.48;53.69
49729;BME280;66333;49.798;10.968;2023-08-01T05:13:11;96767.59;;;20.44;53.88
49729;BME280;66333;49.798;10.968;2023-08-01T05:15:53;96767.25;;;20.41;54.04
49729;BME280;66333;49.798;10.968;2023-08-01T05:18:23;96773.72;;;20.45;53.64
49729;BME280;66333;49.798;10.968;2023-08-01T05:20:53;96761.47;;;20.44;53.82
49729;BME280;66333;49.798;10.968;2023-08-01T05:23:23;96771.97;;;20.34;54.11
49729;BME280;66333;49.798;10.968;2023-08-01T05:25:58;96771.53;;;20.42;53.98
49729;BME280;66333;49.798;10.968;2023-08-01T05:28:30;96780.53;;;20.36;53.89
49729;BME280;66333;49.798;10.968;2023-08-01T05:30:59;96778.41;;;20.38;53.94
49729;BME280;66333;49.798;10.968;2023-08-01T05:33:30;96776.03;;;20.41;53.85
49729;BME280;66333;49.798;10.968;2023-08-01T05:36:00;96768.03;;;20.36;53.94
49729;BME280;66333;49.798;10.968;2023-08-01T05:38:30;96772.59;;;20.41;54.03
49729;BME280;66333;49.798;10.968;2023-08-01T05:41:05;96764.84;;;20.39;54.09
49729;BME280;66333;49.798;10.968;2023-08-01T05:43:36;96769.88;;;20.36;54.04
49729;BME280;66333;49.798;10.968;2023-08-01T05:46:06;96768.78;;;20.32;54.18
49729;BME280;66333;49.798;10.968;2023-08-01T05:48:36;96764.59;;;20.41;53.91
49729;BME280;66333;49.798;10.968;2023-08-01T05:51:06;96761.94;;;20.41;53.87
49729;BME280;66333;49.798;10.968;2023-08-01T05:53:36;96768.84;;;20.37;54.18
49729;BME280;66333;49.798;10.968;2023-08-01T05:56:16;96752.44;;;20.45;53.72
49729;BME280;66333;49.798;10.968;2023-08-01T05:58:44;96765.16;;;20.43;53.96
49729;BME280;66333;49.798;10.968;2023-08-01T06:01:26;96766.81;;;20.44;54.02
49729;BME280;66333;49.798;10.968;2023-08-01T06:04:02;96768.66;;;20.43;53.87
49729;BME280;66333;49.798;10.968;2023-08-01T06:06:30;96778.25;;;20.44;53.94
49729;BME280;66333;49.798;10.968;2023-08-01T06:09:01;96786.94;;;20.40;54.04
49729;BME280;66333;49.798;10.968;2023-08-01T06:11:43;96780.81;;;20.39;53.83
49729;BME280;66333;49.798;10.968;2023-08-01T06:14:13;96783.81;;;20.43;53.83
49729;BME280;66333;49.798;10.968;2023-08-01T06:16:43;96785.53;;;20.32;54.08
49729;BME280;66333;49.798;10.968;2023-08-01T06:19:13;96779.47;;;20.37;53.98
49729;BME280;66333;49.798;10.968;2023-08-01T06:21:44;96781.00;;;20.33;54.07
49729;BME280;66333;49.798;10.968;2023-08-01T06:24:21;96786.91;;;20.35;54.15
49729;BME280;66333;49.798;10.968;2023-08-01T06:26:54;96791.16;;;20.36;54.18
49729;BME280;66333;49.798;10.968;2023-08-01T06:29:21;96796.50;;;20.36;54.04
49729;BME280;66333;49.798;10.968;2023-08-01T06:31:50;96801.00;;;20.35;54.19
49729;BME280;66333;49.798;10.968;2023-08-01T06:34:25;96794.88;;;20.35;54.22
49729;BME280;66333;49.798;10.968;2023-08-01T06:36:56;96805.53;;;20.35;54.30
49729;BME280;66333;49.798;10.968;2023-08-01T06:39:27;96802.63;;;20.36;54.14
49729;BME280;66333;49.798;10.968;2023-08-01T06:42:01;96799.09;;;20.31;54.42
49729;BME280;66333;49.798;10.968;2023-08-01T06:44:31;96797.28;;;20.36;54.48
49729;BME280;66333;49.798;10.968;2023-08-01T06:47:00;96795.69;;;20.35;54.28
49729;BME280;66333;49.798;10.968;2023-08-01T06:49:29;96802.09;;;20.39;54.21
49729;BME280;66333;49.798;10.968;2023-08-01T06:51:59;96796.44;;;20.31;54.26
49729;BME280;66333;49.798;10.968;2023-08-01T06:54:29;96793.56;;;20.37;54.04
49729;BME280;66333;49.798;10.968;2023-08-01T06:57:15;96790.66;;;20.39;54.06
49729;BME280;66333;49.798;10.968;2023-08-01T06:59:45;96775.16;;;20.31;54.19
49729;BME280;66333;49.798;10.968;2023-08-01T07:02:15;96771.53;;;20.42;54.11
49729;BME280;66333;49.798;10.968;2023-08-01T07:04:45;96766.16;;;20.37;54.34
49729;BME280;66333;49.798;10.968;2023-08-01T07:07:15;96752.31;;;20.35;54.55
49729;BME280;66333;49.798;10.968;2023-08-01T07:09:44;96754.13;;;20.29;54.30
49729;BME280;66333;49.798;10.968;2023-08-01T07:12:17;96761.84;;;20.31;54.88
49729;BME280;66333;49.798;10.968;2023-08-01T07:14:45;96759.72;;;20.33;54.74
49729;BME280;66333;49.798;10.968;2023-08-01T07:17:15;96758.66;;;20.34;54.73
49729;BME280;66333;49.798;10.968;2023-08-01T07:19:45;96761.56;;;20.27;54.87
49729;BME280;66333;49.798;10.968;2023-08-01T07:22:13;96760.25;;;20.29;54.75
49729;BME280;66333;49.798;10.968;2023-08-01T07:24:43;96746.94;;;20.29;55.13
49729;BME280;66333;49.798;10.968;2023-08-01T07:27:12;96750.59;;;20.23;55.03
49729;BME280;66333;49.798;10.968;2023-08-01T07:29:54;96745.28;;;20.23;55.06
49729;BME280;66333;49.798;10.968;2023-08-01T07:32:25;96763.09;;;20.23;55.12
49729;BME280;66333;49.798;10.968;2023-08-01T07:34:54;96752.78;;;20.26;55.04
49729;BME280;66333;49.798;10.968;2023-08-01T07:37:25;96764.97;;;20.22;55.10
49729;BME280;66333;49.798;10.968;2023-08-01T07:39:56;96753.25;;;20.23;55.22
49729;BME280;66333;49.798;10.968;2023-08-01T07:42:26;96753.22;;;20.18;55.28
49729;BME280;66333;49.798;10.968;2023-08-01T07:44:59;96753.69;;;20.15;55.45
49729;BME280;66333;49.798;10.968;2023-08-01T07:47:27;96760.94;;;20.20;55.41
49729;BME280;66333;49.798;10.968;2023-08-01T07:49:57;96753.00;;;20.25;54.97
49729;BME280;66333;49.798;10.968;2023-08-01T07:52:27;96763.41;;;20.26;54.92
49729;BME280;66333;49.798;10.968;2023-08-01T07:54:58;96752.25;;;20.29;54.81
49729;BME280;66333;49.798;10.968;2023-08-01T07:57:28;96742.72;;;20.34;54.63
49729;BME280;66333;49.798;10.968;2023-08-01T08:00:16;96734.88;;;20.44;54.43
49729;BME280;66333;49.798;10.968;2023-08-01T08:02:47;96724.69;;;20.41;54.34
49729;BME280;66333;49.798;10.968;2023-08-01T08:05:15;96714.56;;;20.38;54.40
49729;BME280;66333;49.798;10.968;2023-08-01T08:07:45;96735.84;;;20.38;54.51
49729;BME280;66333;49.798;10.968;2023-08-01T08:10:15;96753.31;;;20.28;54.70
49729;BME280;66333;49.798;10.968;2023-08-01T08:12:44;96756.53;;;20.31;54.64
49729;BME280;66333;49.798;10.968;2023-08-01T08:15:17;96754.41;;;20.33;54.66
49729;BME280;66333;49.798;10.968;2023-08-01T08:17:47;96745.88;;;20.31;54.68
49729;BME280;66333;49.798;10.968;2023-08-01T08:20:18;96760.75;;;20.26;54.85
49729;BME280;66333;49.798;10.968;2023-08-01T08:22:48;96753.31;;;20.28;54.72
49729;BME280;66333;49.798;10.968;2023-08-01T08:25:18;96765.56;;;20.29;54.67
49729;BME280;66333;49.798;10.968;2023-08-01T08:27:50;96769.22;;;20.23;54.93
49729;BME280;66333;49.798;10.968;2023-08-01T08:30:22;96763.44;;;20.32;54.64
49729;BME280;66333;49.798;10.968;2023-08-01T08:32:57;96758.63;;;20.28;54.74
49729;BME280;66333;49.798;10.968;2023-08-01T08:35:25;96751.81;;;20.38;54.36
49729;BME280;66333;49.798;10.968;2023-08-01T08:37:55;96748.34;;;20.37;54.27
49729;BME280;66333;49.798;10.968;2023-08-01T08:40:21;96753.94;;;20.36;53.97
49729;BME280;66333;49.798;10.968;2023-08-01T08:42:52;96761.34;;;20.34;54.75
49729;BME280;66333;49.798;10.968;2023-08-01T08:45:36;96753.59;;;20.32;54.51
49729;BME280;66333;49.798;10.968;2023-08-01T08:48:17;96744.38;;;20.40;54.29
49729;BME280;66333;49.798;10.968;2023-08-01T08:50:50;96725.03;;;20.44;54.18
49729;BME280;66333;49.798;10.968;2023-08-01T08:53:20;96739.56;;;20.37;54.63
49729;BME280;66333;49.798;10.968;2023-08-01T08:55:51;96732.38;;;20.37;54.56
49729;BME280;66333;49.798;10.968;2023-08-01T08:58:22;96724.69;;;20.41;54.26
49729;BME280;66333;49.798;10.968;2023-08-01T09:01:02;96717.22;;;20.38;54.48
49729;BME280;66333;49.798;10.968;2023-08-01T09:03:32;96711.47;;;20.46;54.01
49729;BME280;66333;49.798;10.968;2023-08-01T09:06:06;96719.19;;;20.47;54.30
49729;BME280;66333;49.798;10.968;2023-08-01T09:08:36;96716.41;;;20.37;54.40
49729;BME280;66333;49.798;10.968;2023-08-01T09:11:04;96729.03;;;20.47;54.12
49729;BME280;66333;49.798;10.968;2023-08-01T09:13:34;96734.63;;;20.45;54.18
49729;BME280;66333;49.798;10.968;2023-08-01T09:16:10;96731.84;;;20.35;54.55
49729;BME280;66333;49.798;10.968;2023-08-01T09:18:54;96728.94;;;20.37;54.42
49729;BME280;66333;49.798;10.968;2023-08-01T09:21:24;96728.94;;;20.37;54.43
49729;BME280;66333;49.798;10.968;2023-08-01T09:23:55;96727.31;;;20.36;54.36
49729;BME280;66333;49.798;10.968;2023-08-01T09:26:25;96727.31;;;20.36;54.44
49729;BME280;66333;49.798;10.968;2023-08-01T09:29:02;96718.28;;;20.37;54.61
49729;BME280;66333;49.798;10.968;2023-08-01T09:31:44;96712.41;;;20.35;54.68
49729;BME280;66333;49.798;10.968;2023-08-01T09:34:21;96717.16;;;20.33;54.49
49729;BME280;66333;49.798;10.968;2023-08-01T09:36:51;96707.03;;;20.29;54.86
49729;BME280;66333;49.798;10.968;2023-08-01T09:39:27;96711.00;;;20.27;54.96
49729;BME280;66333;49.798;10.968;2023-08-01T09:41:57;96717.63;;;20.24;54.76
49729;BME280;66333;49.798;10.968;2023-08-01T09:44:35;96723.50;;;20.26;55.02
49729;BME280;66333;49.798;10.968;2023-08-01T09:47:17;96722.41;;;20.22;55.06
49729;BME280;66333;49.798;10.968;2023-08-01T09:49:47;96726.63;;;20.18;55.16
49729;BME280;66333;49.798;10.968;2023-08-01T09:52:27;96709.63;;;20.24;54.98
49729;BME280;66333;49.798;10.968;2023-08-01T09:54:57;96716.00;;;20.18;55.14
49729;BME280;66333;49.798;10.968;2023-08-01T09:57:30;96712.75;;;20.16;54.95
49729;BME280;66333;49.798;10.968;2023-08-01T10:00:00;96712.28;;;20.19;55.03
49729;BME280;66333;49.798;10.968;2023-08-01T10:02:45;96718.69;;;20.23;54.83
49729;BME280;66333;49.798;10.968;2023-08-01T10:05:14;96719.19;;;20.20;55.15
49729;BME280;66333;49.798;10.968;2023-08-01T10:07:51;96723.38;;;20.16;55.11
49729;BME280;66333;49.798;10.968;2023-08-01T10:10:21;96714.94;;;20.19;55.06
49729;BME280;66333;49.798;10.968;2023-08-01T10:12:51;96712.56;;;20.23;55.06
49729;BME280;66333;49.798;10.968;2023-08-01T10:15:37;96718.59;;;20.13;55.43
49729;BME280;66333;49.798;10.968;2023-08-01T10:18:08;96712.81;;;20.21;55.15
49729;BME280;66333;49.798;10.968;2023-08-01T10:20:38;96713.59;;;20.17;55.24
49729;BME280;66333;49.798;10.968;2023-08-01T10:23:08;96716.00;;;20.18;55.33
49729;BME280;66333;49.798;10.968;2023-08-01T10:25:51;96705.34;;;20.18;55.41
49729;BME280;66333;49.798;10.968;2023-08-01T10:28:30;96714.94;;;20.19;55.42
49729;BME280;66333;49.798;10.968;2023-08-01T10:31:09;96710.09;;;20.16;55.39
49729;BME280;66333;49.798;10.968;2023-08-01T10:33:43;96707.94;;;20.13;55.63
49729;BME280;66333;49.798;10.968;2023-08-01T10:36:16;96706.34;;;20.12;55.84
49729;BME280;66333;49.798;10.968;2023-08-01T10:38:48;96711.66;;;20.12;55.77
49729;BME280;66333;49.798;10.968;2023-08-01T10:41:19;96707.41;;;20.11;55.58
49729;BME280;66333;49.798;10.968;2023-08-01T10:43:47;96716.00;;;20.18;55.55
49729;BME280;66333;49.798;10.968;2023-08-01T10:46:17;96718.59;;;20.13;55.40
49729;BME280;66333;49.798;10.968;2023-08-01T10:48:54;96756.38;;;20.15;55.58
49729;BME280;66333;49.798;10.968;2023-08-01T10:51:22;96781.97;;;20.21;55.67
49729;BME280;66333;49.798;10.968;2023-08-01T10:53:52;96797.28;;;20.09;55.86
49729;BME280;66333;49.798;10.968;2023-08-01T10:56:25;96781.31;;;20.09;55.86
49729;BME280;66333;49.798;10.968;2023-08-01T10:58:54;96790.34;;;20.08;55.80
49729;BME280;66333;49.798;10.968;2023-08-01T11:01:24;96798.06;;;20.10;56.02
49729;BME280;66333;49.798;10.968;2023-08-01T11:04:01;96790.34;;;20.08;56.07
49729;BME280;66333;49.798;10.968;2023-08-01T11:06:31;96785.50;;;20.05;56.00
49729;BME280;66333;49.798;10.968;2023-08-01T11:08:59;96771.75;;;20.08;56.01
49729;BME280;66333;49.798;10.968;2023-08-01T11:11:29;96788.72;;;20.07;55.76
49729;BME280;66333;49.798;10.968;2023-08-01T11:13:55;96781.31;;;20.09;55.76
49729;BME280;66333;49.798;10.968;2023-08-01T11:16:28;96780.00;;;20.12;55.78
49729;BME280;66333;49.798;10.968;2023-08-01T11:19:16;96781.31;;;20.09;55.79
49729;BME280;66333;49.798;10.968;2023-08-01T11:21:45;96791.44;;;20.12;55.66
49729;BME280;66333;49.798;10.968;2023-08-01T11:24:16;96782.38;;;20.08;55.96
49729;BME280;66333;49.798;10.968;2023-08-01T11:26:44;96778.09;;;20.07;55.98
49729;BME280;66333;49.798;10.968;2023-08-01T11:29:13;96783.97;;;20.09;55.92
49729;BME280;66333;49.798;10.968;2023-08-01T11:32:14;96783.97;;;20.09;55.82
49729;BME280;66333;49.798;10.968;2023-08-01T11:34:49;96786.13;;;20.12;55.61
49729;BME280;66333;49.798;10.968;2023-08-01T11:37:20;96784.00;;;20.14;55.55
49729;BME280;66333;49.798;10.968;2023-08-01T11:39:48;96786.63;;;20.09;55.66
49729;BME280;66333;49.798;10.968;2023-08-01T11:42:16;96777.91;;;20.14;55.66
49729;BME280;66333;49.798;10.968;2023-08-01T11:44:52;96781.63;;;20.13;55.60
49729;BME280;66333;49.798;10.968;2023-08-01T11:47:24;96786.69;;;20.14;55.51
49729;BME280;66333;49.798;10.968;2023-08-01T11:50:02;96784.53;;;20.11;55.67
49729;BME280;66333;49.798;10.968;2023-08-01T11:52:30;96782.94;;;20.10;55.66
49729;BME280;66333;49.798;10.968;2023-08-01T11:55:00;96796.22;;;20.10;55.69
49729;BME280;66333;49.798;10.968;2023-08-01T11:57:28;96798.88;;;20.10;55.76
49729;BME280;66333;49.798;10.968;2023-08-01T12:00:07;96813.22;;;20.09;55.64
49729;BME280;66333;49.798;10.968;2023-08-01T12:02:36;96818.56;;;20.09;55.63
49729;BME280;66333;49.798;10.968;2023-08-01T12:05:20;96808.75;;;20.15;55.36
49729;BME280;66333;49.798;10.968;2023-08-01T12:07:48;96801.28;;;20.12;55.54
49729;BME280;66333;49.798;10.968;2023-08-01T12:10:19;96798.38;;;20.13;55.59
49729;BME280;66333;49.798;10.968;2023-08-01T12:12:51;96777.84;;;20.09;55.62
49729;BME280;66333;49.798;10.968;2023-08-01T12:15:20;96783.66;;;20.06;55.72
49729;BME280;66333;49.798;10.968;2023-08-01T12:17:51;96787.44;;;20.10;55.84
49729;BME280;66333;49.798;10.968;2023-08-01T12:20:24;96784.53;;;20.11;55.75
49729;BME280;66333;49.798;10.968;2023-08-01T12:22:54;96777.72;;;20.20;55.42
49729;BME280;66333;49.798;10.968;2023-08-01T12:25:22;96782.13;;;20.10;55.71
49729;BME280;66333;49.798;10.968;2023-08-01T12:27:53;96770.78;;;20.19;55.49
49729;BME280;66333;49.798;10.968;2023-08-01T12:30:22;96773.38;;;20.14;55.73
49729;BME280;66333;49.798;10.968;2023-08-01T12:32:53;96775.13;;;20.25;55.16
49729;BME280;66333;49.798;10.968;2023-08-01T12:35:28;96764.50;;;20.31;54.99
49729;BME280;66333;49.798;10.968;2023-08-01T12:37:58;96762.16;;;20.34;55.16
49729;BME280;66333;49.798;10.968;2023-08-01T12:40:28;96760.84;;;20.37;55.30
49729;BME280;66333;49.798;10.968;2023-08-01T12:42:57;96759.72;;;20.33;55.79
49729;BME280;66333;49.798;10.968;2023-08-01T12:45:39;96776.19;;;20.29;55.76
49729;BME280;66333;49.798;10.968;2023-08-01T12:48:09;96768.13;;;20.19;56.01
49729;BME280;66333;49.798;10.968;2023-08-01T12:50:49;96766.56;;;20.23;55.94
49729;BME280;66333;49.798;10.968;2023-08-01T12:53:20;96765.56;;;20.29;55.74
49729;BME280;66333;49.798;10.968;2023-08-01T12:55:56;96763.44;;;20.32;55.51
49729;BME280;66333;49.798;10.968;2023-08-01T12:58:26;96770.88;;;20.29;55.65
49729;BME280;66333;49.798;10.968;2023-08-01T13:00:56;96764.47;;;20.25;55.89
49729;BME280;66333;49.798;10.968;2023-08-01T13:03:23;96759.44;;;20.29;55.49
49729;BME280;66333;49.798;10.968;2023-08-01T13:05:53;96758.19;;;20.37;55.28
49729;BME280;66333;49.798;10.968;2023-08-01T13:08:23;96767.78;;;20.38;55.57
49729;BME280;66333;49.798;10.968;2023-08-01T13:10:55;96760.03;;;20.36;55.46
49729;BME280;66333;49.798;10.968;2023-08-01T13:13:27;96764.47;;;20.25;55.63
49729;BME280;66333;49.798;10.968;2023-08-01T13:15:56;96769.91;;;20.41;55.32